ANZ523 NZAA-NZCH
Flight info
| Callsign | ANZ523 |
|---|---|
| Flight time | 1h 11m |
| Altitude | 36000 |
| Route | IGBAT H384 NP H252 NS Y288 IPRAK |
| Aircraft | A320/M-SDE1E2E3GIRW/LB1 |
Departure
| Time | 2026-05-06 20:21 |
|---|---|
| Airport | Auckland International Airport (NZAA) |
Arrival
| Time | 2026-05-06 21:32 |
|---|---|
| Airport | Christchurch International Airport (NZCH) |
| Time | Latitude | Longitude | Altitude | Speed | Heading |
|---|---|---|---|---|---|
| 2026-05-06 20:10 | -37.00736 | 174.79010 | 25 ft | 0 kts | 342° |
| 2026-05-06 20:12 | -37.00749 | 174.79016 | 30 ft | 4 kts | 337° |
| 2026-05-06 20:12 | -37.00765 | 174.79025 | 29 ft | 4 kts | 328° |
| 2026-05-06 20:12 | -37.00793 | 174.79056 | 28 ft | 4 kts | 296° |
| 2026-05-06 20:12 | -37.00797 | 174.79084 | 28 ft | 2 kts | 251° |
| 2026-05-06 20:13 | -37.00788 | 174.79114 | 31 ft | 4 kts | 251° |
| 2026-05-06 20:13 | -37.00779 | 174.79147 | 29 ft | 4 kts | 251° |
| 2026-05-06 20:13 | -37.00777 | 174.79156 | 29 ft | 0 kts | 251° |
| 2026-05-06 20:15 | -37.00777 | 174.79154 | 29 ft | 0 kts | 251° |
| 2026-05-06 20:15 | -37.00778 | 174.79152 | 29 ft | 0 kts | 251° |
| 2026-05-06 20:16 | -37.00780 | 174.79146 | 30 ft | 2 kts | 251° |
| 2026-05-06 20:16 | -37.00795 | 174.79115 | 29 ft | 5 kts | 224° |
| 2026-05-06 20:16 | -37.00836 | 174.79110 | 28 ft | 7 kts | 167° |
| 2026-05-06 20:16 | -37.00884 | 174.79082 | 29 ft | 7 kts | 262° |
| 2026-05-06 20:17 | -37.00902 | 174.79016 | 25 ft | 10 kts | 249° |
| 2026-05-06 20:17 | -37.00935 | 174.78902 | 25 ft | 16 kts | 250° |
| 2026-05-06 20:17 | -37.00975 | 174.78758 | 25 ft | 19 kts | 251° |
| 2026-05-06 20:17 | -37.01020 | 174.78595 | 25 ft | 21 kts | 251° |
| 2026-05-06 20:18 | -37.01071 | 174.78408 | 29 ft | 24 kts | 251° |
| 2026-05-06 20:18 | -37.01126 | 174.78205 | 30 ft | 26 kts | 250° |
| 2026-05-06 20:18 | -37.01191 | 174.77979 | 26 ft | 28 kts | 250° |
| 2026-05-06 20:18 | -37.01242 | 174.77795 | 29 ft | 13 kts | 247° |
| 2026-05-06 20:19 | -37.01321 | 174.77787 | 27 ft | 14 kts | 160° |
| 2026-05-06 20:19 | -37.01412 | 174.77832 | 30 ft | 7 kts | 147° |
| 2026-05-06 20:19 | -37.01415 | 174.77859 | 28 ft | 0 kts | 75° |
| 2026-05-06 20:19 | -37.01415 | 174.77860 | 28 ft | 0 kts | 75° |
| 2026-05-06 20:20 | -37.01415 | 174.77861 | 28 ft | 1 kts | 75° |
| 2026-05-06 20:20 | -37.01376 | 174.78016 | 27 ft | 55 kts | 70° |
| 2026-05-06 20:20 | -37.01152 | 174.78819 | 29 ft | 127 kts | 71° |
| 2026-05-06 20:20 | -37.00849 | 174.79909 | 179 ft | 160 kts | 70° |
| 2026-05-06 20:21 | -37.00531 | 174.81066 | 820 ft | 157 kts | 70° |
| 2026-05-06 20:21 | -37.00165 | 174.82427 | 1555 ft | 156 kts | 67° |
| 2026-05-06 20:21 | -36.99813 | 174.83733 | 2102 ft | 163 kts | 65° |
| 2026-05-06 20:21 | -36.99423 | 174.85124 | 2378 ft | 179 kts | 65° |
| 2026-05-06 20:22 | -36.98985 | 174.86677 | 2509 ft | 199 kts | 66° |
| 2026-05-06 20:22 | -36.98508 | 174.88372 | 2676 ft | 217 kts | 66° |
| 2026-05-06 20:22 | -36.97996 | 174.90203 | 2979 ft | 227 kts | 66° |
| 2026-05-06 20:22 | -36.97462 | 174.92115 | 3014 ft | 242 kts | 66° |
| 2026-05-06 20:23 | -36.96898 | 174.94133 | 3015 ft | 249 kts | 67° |
| 2026-05-06 20:23 | -36.96328 | 174.96183 | 3021 ft | 248 kts | 67° |
| 2026-05-06 20:23 | -36.95810 | 174.98247 | 3053 ft | 253 kts | 77° |
| 2026-05-06 20:23 | -36.95925 | 175.00511 | 3896 ft | 265 kts | 103° |
| 2026-05-06 20:24 | -36.96819 | 175.02559 | 4876 ft | 276 kts | 128° |
| 2026-05-06 20:24 | -36.98289 | 175.03950 | 5729 ft | 286 kts | 154° |
| 2026-05-06 20:24 | -37.00229 | 175.04424 | 6569 ft | 293 kts | 184° |
| 2026-05-06 20:24 | -37.02237 | 175.03812 | 7448 ft | 295 kts | 200° |
| 2026-05-06 20:25 | -37.04192 | 175.02984 | 8324 ft | 298 kts | 201° |
| 2026-05-06 20:25 | -37.06168 | 175.02139 | 9179 ft | 302 kts | 201° |
| 2026-05-06 20:25 | -37.08170 | 175.01287 | 10031 ft | 306 kts | 201° |
| 2026-05-06 20:25 | -37.10243 | 175.00408 | 10470 ft | 326 kts | 201° |
| 2026-05-06 20:26 | -37.12469 | 174.99465 | 10693 ft | 349 kts | 201° |
| 2026-05-06 20:26 | -37.14825 | 174.98469 | 11103 ft | 363 kts | 201° |
| 2026-05-06 20:26 | -37.17239 | 174.97456 | 11768 ft | 368 kts | 200° |
| 2026-05-06 20:26 | -37.19680 | 174.96434 | 12482 ft | 372 kts | 200° |
| 2026-05-06 20:27 | -37.22142 | 174.95406 | 13194 ft | 374 kts | 200° |
| 2026-05-06 20:27 | -37.24627 | 174.94367 | 13917 ft | 378 kts | 200° |
| 2026-05-06 20:27 | -37.27130 | 174.93316 | 14577 ft | 381 kts | 201° |
| 2026-05-06 20:27 | -37.29646 | 174.92256 | 15201 ft | 383 kts | 201° |
| 2026-05-06 20:28 | -37.32182 | 174.91187 | 15810 ft | 386 kts | 201° |
| 2026-05-06 20:28 | -37.34734 | 174.90110 | 16419 ft | 388 kts | 201° |
| 2026-05-06 20:28 | -37.37304 | 174.89024 | 17027 ft | 391 kts | 201° |
| 2026-05-06 20:28 | -37.39895 | 174.87930 | 17629 ft | 394 kts | 201° |
| 2026-05-06 20:29 | -37.42505 | 174.86826 | 18228 ft | 397 kts | 201° |
| 2026-05-06 20:29 | -37.45136 | 174.85713 | 18815 ft | 400 kts | 201° |
| 2026-05-06 20:29 | -37.47786 | 174.84590 | 19344 ft | 404 kts | 201° |
| 2026-05-06 20:29 | -37.50457 | 174.83460 | 19870 ft | 407 kts | 201° |
| 2026-05-06 20:30 | -37.53155 | 174.82318 | 20413 ft | 410 kts | 201° |
| 2026-05-06 20:30 | -37.58600 | 174.80008 | 21438 ft | 416 kts | 201° |
| 2026-05-06 20:30 | -37.61356 | 174.78838 | 21915 ft | 419 kts | 201° |
| 2026-05-06 20:31 | -37.64131 | 174.77661 | 22384 ft | 423 kts | 201° |
| 2026-05-06 20:31 | -37.66924 | 174.76474 | 22849 ft | 425 kts | 201° |
| 2026-05-06 20:31 | -37.69741 | 174.75276 | 23310 ft | 428 kts | 201° |
| 2026-05-06 20:31 | -37.72577 | 174.74070 | 23769 ft | 431 kts | 201° |
| 2026-05-06 20:32 | -37.75434 | 174.72851 | 24172 ft | 434 kts | 201° |
| 2026-05-06 20:32 | -37.78301 | 174.71624 | 24590 ft | 436 kts | 201° |
| 2026-05-06 20:32 | -37.81179 | 174.70391 | 24994 ft | 438 kts | 201° |
| 2026-05-06 20:32 | -37.84068 | 174.69156 | 25406 ft | 439 kts | 201° |
| 2026-05-06 20:33 | -37.86969 | 174.67918 | 25807 ft | 441 kts | 201° |
| 2026-05-06 20:33 | -37.89879 | 174.66677 | 26202 ft | 442 kts | 201° |
| 2026-05-06 20:33 | -37.92798 | 174.65429 | 26581 ft | 444 kts | 201° |
| 2026-05-06 20:33 | -37.95741 | 174.64164 | 26961 ft | 446 kts | 201° |
| 2026-05-06 20:34 | -37.98679 | 174.62896 | 27357 ft | 448 kts | 201° |
| 2026-05-06 20:34 | -38.01640 | 174.61619 | 27756 ft | 450 kts | 201° |
| 2026-05-06 20:34 | -38.04609 | 174.60338 | 28155 ft | 452 kts | 201° |
| 2026-05-06 20:34 | -38.07588 | 174.59054 | 28558 ft | 453 kts | 201° |
| 2026-05-06 20:35 | -38.10581 | 174.57764 | 28927 ft | 455 kts | 201° |
| 2026-05-06 20:35 | -38.13588 | 174.56469 | 29299 ft | 457 kts | 201° |
| 2026-05-06 20:35 | -38.16602 | 174.55168 | 29675 ft | 459 kts | 201° |
| 2026-05-06 20:35 | -38.19622 | 174.53862 | 30176 ft | 458 kts | 201° |
| 2026-05-06 20:36 | -38.22630 | 174.52564 | 30698 ft | 455 kts | 201° |
| 2026-05-06 20:36 | -38.25622 | 174.51274 | 31174 ft | 453 kts | 201° |
| 2026-05-06 20:36 | -38.28598 | 174.49986 | 31651 ft | 451 kts | 201° |
| 2026-05-06 20:36 | -38.31561 | 174.48699 | 32131 ft | 449 kts | 201° |
| 2026-05-06 20:37 | -38.34512 | 174.47419 | 32610 ft | 447 kts | 201° |
| 2026-05-06 20:37 | -38.37450 | 174.46144 | 33093 ft | 445 kts | 201° |
| 2026-05-06 20:37 | -38.40413 | 174.44857 | 33589 ft | 443 kts | 202° |
| 2026-05-06 20:37 | -38.43326 | 174.43589 | 34082 ft | 441 kts | 202° |
| 2026-05-06 20:38 | -38.46226 | 174.42324 | 34539 ft | 440 kts | 202° |
| 2026-05-06 20:38 | -38.49113 | 174.41065 | 34945 ft | 438 kts | 202° |
| 2026-05-06 20:38 | -38.51998 | 174.39810 | 35331 ft | 437 kts | 202° |
| 2026-05-06 20:38 | -38.54877 | 174.38556 | 35692 ft | 436 kts | 202° |
| 2026-05-06 20:39 | -38.57749 | 174.37303 | 36047 ft | 436 kts | 202° |
| 2026-05-06 20:39 | -38.60620 | 174.36047 | 36259 ft | 436 kts | 202° |
| 2026-05-06 20:39 | -38.63501 | 174.34786 | 36304 ft | 439 kts | 202° |
| 2026-05-06 20:40 | -38.69292 | 174.32248 | 36305 ft | 440 kts | 202° |
| 2026-05-06 20:40 | -38.75093 | 174.29697 | 36304 ft | 441 kts | 202° |
| 2026-05-06 20:41 | -38.80895 | 174.27151 | 36303 ft | 441 kts | 202° |
| 2026-05-06 20:41 | -38.86704 | 174.24601 | 36299 ft | 442 kts | 202° |
| 2026-05-06 20:42 | -38.91577 | 174.22448 | 36305 ft | 442 kts | 202° |
| 2026-05-06 20:42 | -38.97407 | 174.19870 | 36309 ft | 442 kts | 202° |
| 2026-05-06 20:43 | -39.03189 | 174.17333 | 36315 ft | 443 kts | 202° |
| 2026-05-06 20:43 | -39.09110 | 174.14916 | 36312 ft | 444 kts | 201° |
| 2026-05-06 20:44 | -39.15009 | 174.12568 | 36312 ft | 444 kts | 201° |
| 2026-05-06 20:44 | -39.20863 | 174.10198 | 36313 ft | 444 kts | 201° |
| 2026-05-06 20:45 | -39.26739 | 174.07786 | 36310 ft | 443 kts | 202° |
| 2026-05-06 20:45 | -39.32605 | 174.05355 | 36250 ft | 443 kts | 202° |
| 2026-05-06 20:45 | -39.35579 | 174.04127 | 35985 ft | 442 kts | 202° |
| 2026-05-06 20:46 | -39.38510 | 174.02925 | 35735 ft | 442 kts | 201° |
| 2026-05-06 20:46 | -39.41445 | 174.01724 | 35488 ft | 443 kts | 201° |
| 2026-05-06 20:46 | -39.44379 | 174.00522 | 35256 ft | 444 kts | 201° |
| 2026-05-06 20:46 | -39.47329 | 173.99308 | 35017 ft | 445 kts | 202° |
| 2026-05-06 20:47 | -39.50274 | 173.98091 | 34775 ft | 445 kts | 202° |
| 2026-05-06 20:47 | -39.53229 | 173.96870 | 34532 ft | 446 kts | 202° |
| 2026-05-06 20:47 | -39.56186 | 173.95646 | 34315 ft | 446 kts | 202° |
| 2026-05-06 20:48 | -39.62108 | 173.93190 | 34261 ft | 447 kts | 202° |
| 2026-05-06 20:48 | -39.68043 | 173.90725 | 34270 ft | 448 kts | 202° |
| 2026-05-06 20:49 | -39.74029 | 173.88233 | 34260 ft | 449 kts | 202° |
| 2026-05-06 20:49 | -39.79977 | 173.85758 | 34252 ft | 449 kts | 202° |
| 2026-05-06 20:50 | -39.85930 | 173.83274 | 34258 ft | 449 kts | 202° |
| 2026-05-06 20:50 | -39.91883 | 173.80796 | 34255 ft | 449 kts | 202° |
| 2026-05-06 20:51 | -39.97879 | 173.78295 | 34252 ft | 450 kts | 202° |
| 2026-05-06 20:51 | -40.03787 | 173.75813 | 34249 ft | 450 kts | 202° |
| 2026-05-06 20:52 | -40.09654 | 173.73351 | 34263 ft | 450 kts | 202° |
| 2026-05-06 20:52 | -40.15618 | 173.70835 | 34244 ft | 449 kts | 202° |
| 2026-05-06 20:53 | -40.21566 | 173.68315 | 34245 ft | 449 kts | 202° |
| 2026-05-06 20:53 | -40.27522 | 173.65799 | 34244 ft | 450 kts | 202° |
| 2026-05-06 20:54 | -40.33524 | 173.63270 | 34247 ft | 450 kts | 202° |
| 2026-05-06 20:54 | -40.39481 | 173.60745 | 34238 ft | 450 kts | 202° |
| 2026-05-06 20:55 | -40.45443 | 173.58214 | 34239 ft | 450 kts | 202° |
| 2026-05-06 20:55 | -40.51410 | 173.55674 | 34239 ft | 450 kts | 202° |
| 2026-05-06 20:56 | -40.57369 | 173.53133 | 34258 ft | 450 kts | 203° |
| 2026-05-06 20:56 | -40.63338 | 173.50585 | 34236 ft | 451 kts | 203° |
| 2026-05-06 20:57 | -40.69357 | 173.48016 | 34236 ft | 452 kts | 203° |
| 2026-05-06 20:57 | -40.75336 | 173.45456 | 34235 ft | 452 kts | 203° |
| 2026-05-06 20:58 | -40.81284 | 173.42901 | 34228 ft | 453 kts | 203° |
| 2026-05-06 20:58 | -40.87310 | 173.40304 | 34230 ft | 453 kts | 203° |
| 2026-05-06 20:59 | -40.93304 | 173.37720 | 34226 ft | 453 kts | 203° |
| 2026-05-06 20:59 | -40.99311 | 173.35130 | 34227 ft | 456 kts | 203° |
| 2026-05-06 21:00 | -41.05351 | 173.32517 | 34232 ft | 457 kts | 204° |
| 2026-05-06 21:00 | -41.11393 | 173.29903 | 34223 ft | 457 kts | 204° |
| 2026-05-06 21:01 | -41.17435 | 173.27276 | 34231 ft | 457 kts | 204° |
| 2026-05-06 21:01 | -41.23484 | 173.24630 | 34233 ft | 458 kts | 204° |
| 2026-05-06 21:02 | -41.29536 | 173.21979 | 34216 ft | 458 kts | 204° |
| 2026-05-06 21:02 | -41.35628 | 173.19471 | 34224 ft | 459 kts | 201° |
| 2026-05-06 21:03 | -41.41797 | 173.17186 | 34218 ft | 460 kts | 200° |
| 2026-05-06 21:03 | -41.47965 | 173.14901 | 34226 ft | 460 kts | 201° |
| 2026-05-06 21:04 | -41.54123 | 173.12557 | 34218 ft | 460 kts | 202° |
| 2026-05-06 21:04 | -41.60278 | 173.10164 | 34217 ft | 462 kts | 201° |
| 2026-05-06 21:05 | -41.66460 | 173.07753 | 34208 ft | 463 kts | 201° |
| 2026-05-06 21:05 | -41.72659 | 173.05358 | 34210 ft | 464 kts | 201° |
| 2026-05-06 21:06 | -41.78861 | 173.02962 | 34201 ft | 464 kts | 201° |
| 2026-05-06 21:06 | -41.85010 | 173.00567 | 34190 ft | 464 kts | 201° |
| 2026-05-06 21:06 | -41.88113 | 172.99354 | 33957 ft | 464 kts | 201° |
| 2026-05-06 21:07 | -41.91217 | 172.98141 | 33679 ft | 464 kts | 201° |
| 2026-05-06 21:07 | -41.94319 | 172.96931 | 33404 ft | 465 kts | 201° |
| 2026-05-06 21:07 | -41.97428 | 172.95716 | 33144 ft | 466 kts | 201° |
| 2026-05-06 21:07 | -42.00542 | 172.94501 | 32882 ft | 466 kts | 201° |
| 2026-05-06 21:08 | -42.03662 | 172.93282 | 32614 ft | 467 kts | 201° |
| 2026-05-06 21:08 | -42.06785 | 172.92064 | 32339 ft | 467 kts | 201° |
| 2026-05-06 21:08 | -42.09890 | 172.90852 | 31904 ft | 463 kts | 201° |
| 2026-05-06 21:08 | -42.12976 | 172.89647 | 31295 ft | 460 kts | 201° |
| 2026-05-06 21:09 | -42.16038 | 172.88448 | 30686 ft | 458 kts | 201° |
| 2026-05-06 21:09 | -42.19093 | 172.87246 | 30100 ft | 455 kts | 201° |
| 2026-05-06 21:09 | -42.22127 | 172.86048 | 29445 ft | 453 kts | 201° |
| 2026-05-06 21:09 | -42.25137 | 172.84859 | 28858 ft | 449 kts | 201° |
| 2026-05-06 21:10 | -42.28121 | 172.83684 | 28271 ft | 445 kts | 201° |
| 2026-05-06 21:10 | -42.31080 | 172.82516 | 27678 ft | 441 kts | 201° |
| 2026-05-06 21:10 | -42.34010 | 172.81357 | 27107 ft | 438 kts | 201° |
| 2026-05-06 21:10 | -42.35945 | 172.80590 | 26732 ft | 436 kts | 201° |
| 2026-05-06 21:11 | -42.38844 | 172.79437 | 26180 ft | 433 kts | 201° |
| 2026-05-06 21:11 | -42.41731 | 172.78293 | 25607 ft | 431 kts | 201° |
| 2026-05-06 21:11 | -42.44600 | 172.77155 | 25074 ft | 429 kts | 201° |
| 2026-05-06 21:11 | -42.47454 | 172.76021 | 24537 ft | 426 kts | 201° |
| 2026-05-06 21:12 | -42.50290 | 172.74894 | 24036 ft | 423 kts | 201° |
| 2026-05-06 21:12 | -42.53107 | 172.73775 | 23514 ft | 421 kts | 201° |
| 2026-05-06 21:12 | -42.55909 | 172.72661 | 22980 ft | 417 kts | 201° |
| 2026-05-06 21:12 | -42.58681 | 172.71558 | 22502 ft | 413 kts | 201° |
| 2026-05-06 21:13 | -42.61435 | 172.70462 | 22010 ft | 411 kts | 201° |
| 2026-05-06 21:13 | -42.64165 | 172.69376 | 21504 ft | 407 kts | 201° |
| 2026-05-06 21:13 | -42.66888 | 172.68295 | 20997 ft | 404 kts | 201° |
| 2026-05-06 21:13 | -42.69565 | 172.67229 | 20498 ft | 402 kts | 201° |
| 2026-05-06 21:14 | -42.72240 | 172.66158 | 19972 ft | 400 kts | 201° |
| 2026-05-06 21:14 | -42.74736 | 172.65154 | 19487 ft | 397 kts | 201° |
| 2026-05-06 21:14 | -42.77382 | 172.64086 | 18945 ft | 397 kts | 201° |
| 2026-05-06 21:14 | -42.80024 | 172.63022 | 18413 ft | 395 kts | 201° |
| 2026-05-06 21:15 | -42.82695 | 172.61946 | 17820 ft | 394 kts | 200° |
| 2026-05-06 21:15 | -42.85311 | 172.60893 | 17301 ft | 390 kts | 200° |
| 2026-05-06 21:15 | -42.87895 | 172.59846 | 16765 ft | 386 kts | 200° |
| 2026-05-06 21:15 | -42.90464 | 172.58801 | 16249 ft | 383 kts | 200° |
| 2026-05-06 21:16 | -42.93011 | 172.57761 | 15734 ft | 381 kts | 200° |
| 2026-05-06 21:16 | -42.95539 | 172.56728 | 15217 ft | 378 kts | 199° |
| 2026-05-06 21:16 | -42.98054 | 172.55702 | 14705 ft | 376 kts | 199° |
| 2026-05-06 21:16 | -43.00562 | 172.54678 | 14195 ft | 375 kts | 199° |
| 2026-05-06 21:17 | -43.03047 | 172.53664 | 13704 ft | 373 kts | 199° |
| 2026-05-06 21:17 | -43.05528 | 172.52651 | 13170 ft | 370 kts | 199° |
| 2026-05-06 21:17 | -43.08024 | 172.51634 | 12652 ft | 368 kts | 199° |
| 2026-05-06 21:17 | -43.10465 | 172.50636 | 12160 ft | 365 kts | 199° |
| 2026-05-06 21:18 | -43.12893 | 172.49640 | 11658 ft | 363 kts | 199° |
| 2026-05-06 21:18 | -43.15304 | 172.48649 | 11169 ft | 361 kts | 200° |
| 2026-05-06 21:18 | -43.17705 | 172.47664 | 10676 ft | 359 kts | 200° |
| 2026-05-06 21:18 | -43.20079 | 172.46691 | 10372 ft | 351 kts | 199° |
| 2026-05-06 21:19 | -43.22377 | 172.45751 | 10243 ft | 339 kts | 199° |
| 2026-05-06 21:19 | -43.24600 | 172.44841 | 10105 ft | 328 kts | 199° |
| 2026-05-06 21:19 | -43.26715 | 172.43979 | 9982 ft | 306 kts | 200° |
| 2026-05-06 21:19 | -43.28690 | 172.43175 | 9855 ft | 287 kts | 200° |
| 2026-05-06 21:20 | -43.30541 | 172.42416 | 9733 ft | 269 kts | 200° |
| 2026-05-06 21:20 | -43.32280 | 172.41700 | 9608 ft | 253 kts | 201° |
| 2026-05-06 21:20 | -43.33920 | 172.41023 | 9488 ft | 238 kts | 202° |
| 2026-05-06 21:20 | -43.35453 | 172.40392 | 9258 ft | 225 kts | 204° |
| 2026-05-06 21:21 | -43.36972 | 172.39759 | 8720 ft | 228 kts | 205° |
| 2026-05-06 21:21 | -43.38455 | 172.39148 | 8422 ft | 220 kts | 205° |
| 2026-05-06 21:21 | -43.40016 | 172.38503 | 7973 ft | 219 kts | 206° |
| 2026-05-06 21:21 | -43.41322 | 172.37603 | 7667 ft | 202 kts | 229° |
| 2026-05-06 21:22 | -43.42388 | 172.36378 | 7383 ft | 198 kts | 234° |
| 2026-05-06 21:22 | -43.43418 | 172.35128 | 7116 ft | 196 kts | 234° |
| 2026-05-06 21:22 | -43.44443 | 172.33891 | 6861 ft | 195 kts | 235° |
| 2026-05-06 21:22 | -43.45518 | 172.32724 | 6589 ft | 205 kts | 219° |
| 2026-05-06 21:23 | -43.46947 | 172.32191 | 6290 ft | 219 kts | 198° |
| 2026-05-06 21:23 | -43.48474 | 172.31959 | 5973 ft | 221 kts | 195° |
| 2026-05-06 21:23 | -43.49998 | 172.31774 | 5676 ft | 219 kts | 194° |
| 2026-05-06 21:23 | -43.51509 | 172.31586 | 5376 ft | 217 kts | 194° |
| 2026-05-06 21:24 | -43.53006 | 172.31383 | 5001 ft | 215 kts | 194° |
| 2026-05-06 21:24 | -43.54490 | 172.31161 | 4634 ft | 213 kts | 195° |
| 2026-05-06 21:24 | -43.55956 | 172.30937 | 4353 ft | 210 kts | 194° |
| 2026-05-06 21:24 | -43.57403 | 172.30696 | 4062 ft | 209 kts | 195° |
| 2026-05-06 21:25 | -43.58845 | 172.30447 | 3792 ft | 208 kts | 194° |
| 2026-05-06 21:25 | -43.60277 | 172.30191 | 3513 ft | 206 kts | 194° |
| 2026-05-06 21:25 | -43.61726 | 172.29915 | 3371 ft | 209 kts | 194° |
| 2026-05-06 21:25 | -43.63174 | 172.29656 | 3217 ft | 212 kts | 185° |
| 2026-05-06 21:26 | -43.64577 | 172.30203 | 3066 ft | 212 kts | 146° |
| 2026-05-06 21:26 | -43.65746 | 172.31421 | 2918 ft | 209 kts | 136° |
| 2026-05-06 21:26 | -43.66528 | 172.33009 | 2761 ft | 194 kts | 92° |
| 2026-05-06 21:26 | -43.66290 | 172.34644 | 2615 ft | 165 kts | 39° |
| 2026-05-06 21:27 | -43.65343 | 172.35225 | 2474 ft | 150 kts | 358° |
| 2026-05-06 21:27 | -43.64296 | 172.35445 | 2303 ft | 156 kts | 26° |
| 2026-05-06 21:27 | -43.63486 | 172.36480 | 2170 ft | 157 kts | 34° |
| 2026-05-06 21:27 | -43.62679 | 172.37332 | 2104 ft | 138 kts | 30° |
| 2026-05-06 21:28 | -43.61934 | 172.38142 | 2044 ft | 136 kts | 32° |
| 2026-05-06 21:28 | -43.61318 | 172.38834 | 1998 ft | 133 kts | 33° |
| 2026-05-06 21:28 | -43.60629 | 172.39622 | 2003 ft | 131 kts | 32° |
| 2026-05-06 21:28 | -43.59918 | 172.40439 | 1998 ft | 131 kts | 32° |
| 2026-05-06 21:29 | -43.59213 | 172.41253 | 1999 ft | 132 kts | 33° |
| 2026-05-06 21:29 | -43.58513 | 172.42064 | 1991 ft | 130 kts | 32° |
| 2026-05-06 21:29 | -43.57806 | 172.42884 | 1988 ft | 133 kts | 32° |
| 2026-05-06 21:29 | -43.57094 | 172.43710 | 1913 ft | 133 kts | 33° |
| 2026-05-06 21:30 | -43.56391 | 172.44527 | 1789 ft | 131 kts | 33° |
| 2026-05-06 21:30 | -43.55696 | 172.45333 | 1636 ft | 131 kts | 33° |
| 2026-05-06 21:30 | -43.54998 | 172.46143 | 1454 ft | 132 kts | 34° |
| 2026-05-06 21:30 | -43.54302 | 172.46951 | 1295 ft | 129 kts | 34° |
| 2026-05-06 21:31 | -43.53587 | 172.47780 | 1120 ft | 130 kts | 34° |
| 2026-05-06 21:31 | -43.52893 | 172.48581 | 955 ft | 130 kts | 35° |
| 2026-05-06 21:31 | -43.52185 | 172.49394 | 783 ft | 133 kts | 38° |
| 2026-05-06 21:31 | -43.51485 | 172.50213 | 623 ft | 134 kts | 42° |
| 2026-05-06 21:32 | -43.50763 | 172.51050 | 417 ft | 130 kts | 43° |
| 2026-05-06 21:32 | -43.49521 | 172.52476 | 125 ft | 0 kts | 37° |
| 2026-05-06 21:33 | -43.49275 | 172.52779 | 122 ft | 66 kts | 39° |
| 2026-05-06 21:33 | -43.48969 | 172.53132 | 113 ft | 41 kts | 39° |
| 2026-05-06 21:33 | -43.48921 | 172.53251 | 112 ft | 9 kts | 146° |
| 2026-05-06 21:33 | -43.48976 | 172.53338 | 110 ft | 14 kts | 128° |
| 2026-05-06 21:34 | -43.49006 | 172.53422 | 113 ft | 6 kts | 83° |
| 2026-05-06 21:34 | -43.48967 | 172.53476 | 111 ft | 11 kts | 38° |
| 2026-05-06 21:34 | -43.48876 | 172.53569 | 108 ft | 19 kts | 35° |
| 2026-05-06 21:34 | -43.48810 | 172.53643 | 109 ft | 8 kts | 39° |
| 2026-05-06 21:35 | -43.48823 | 172.53710 | 109 ft | 10 kts | 129° |
| 2026-05-06 21:35 | -43.48848 | 172.53752 | 109 ft | 2 kts | 132° |
| 2026-05-06 21:35 | -43.48849 | 172.53753 | 109 ft | 0 kts | 138° |
| 2026-05-06 21:35 | -43.48852 | 172.53758 | 109 ft | 3 kts | 132° |
| 2026-05-06 21:36 | -43.48859 | 172.53773 | 109 ft | 0 kts | 115° |
| 2026-05-06 21:36 | -43.48860 | 172.53776 | 109 ft | 0 kts | 115° |